createdAt,value
2022-12-05T00:01:22.526Z,26.95
2022-12-05T00:03:51.561Z,23.13
2022-12-05T00:06:20.009Z,23.52
2022-12-05T00:08:47.953Z,21.45
2022-12-05T00:11:16.958Z,21.50
2022-12-05T00:13:44.739Z,21.23
2022-12-05T00:16:13.606Z,20.90
2022-12-05T00:18:40.969Z,21.23
2022-12-05T00:21:11.931Z,20.20
2022-12-05T00:23:38.766Z,18.13
2022-12-05T00:26:06.519Z,20.63
2022-12-05T00:28:34.395Z,18.63
2022-12-05T00:31:28.133Z,19.60
2022-12-05T00:33:55.780Z,18.67
2022-12-05T00:36:25.700Z,18.65
2022-12-05T00:38:53.282Z,20.42
2022-12-05T00:41:24.847Z,16.70
2022-12-05T00:43:52.416Z,20.35
2022-12-05T00:46:22.367Z,20.13
2022-12-05T00:48:49.770Z,19.75
2022-12-05T00:51:19.692Z,19.00
2022-12-05T00:53:47.501Z,16.38
2022-12-05T00:56:16.753Z,17.65
2022-12-05T00:58:44.155Z,18.92
2022-12-05T01:01:14.771Z,20.67
2022-12-05T01:03:42.732Z,19.85
2022-12-05T01:06:10.734Z,19.05
2022-12-05T01:08:37.874Z,20.42
2022-12-05T01:11:06.065Z,20.35
2022-12-05T01:13:33.689Z,18.77
2022-12-05T01:16:01.095Z,19.20
2022-12-05T01:18:28.291Z,20.15
2022-12-05T01:20:55.385Z,18.48
2022-12-05T01:23:22.473Z,17.98
2022-12-05T01:25:51.816Z,20.13
2022-12-05T01:28:19.144Z,19.38
2022-12-05T01:30:47.778Z,18.08
2022-12-05T01:33:15.359Z,17.70
2022-12-05T01:35:42.930Z,17.02
2022-12-05T01:38:12.374Z,17.05
2022-12-05T01:40:39.553Z,19.80
2022-12-05T01:43:14.238Z,18.27
2022-12-05T01:48:21.119Z,17.48
2022-12-05T01:50:50.759Z,17.92
2022-12-05T01:53:18.225Z,17.25
2022-12-05T01:55:47.243Z,16.80
2022-12-05T01:58:15.262Z,15.90
2022-12-05T02:00:42.456Z,17.75
2022-12-05T02:03:17.046Z,16.35
2022-12-05T02:05:46.051Z,16.58
2022-12-05T02:08:12.925Z,14.43
2022-12-05T02:10:47.112Z,16.88
2022-12-05T02:13:43.520Z,15.88
2022-12-05T02:16:16.639Z,18.50
2022-12-05T02:18:54.073Z,16.35
2022-12-05T02:21:29.865Z,17.02
2022-12-05T02:24:33.842Z,15.38
2022-12-05T02:27:36.604Z,14.77
2022-12-05T02:30:14.121Z,17.92
2022-12-05T02:33:13.058Z,15.93
2022-12-05T02:36:03.885Z,16.13
2022-12-05T02:38:44.837Z,16.70
2022-12-05T02:41:28.671Z,17.30
2022-12-05T02:44:10.824Z,15.07
2022-12-05T02:46:40.473Z,16.65
2022-12-05T02:49:22.164Z,16.35
2022-12-05T02:51:55.076Z,16.80
2022-12-05T02:54:26.935Z,17.00
2022-12-05T02:56:54.733Z,17.92
2022-12-05T02:59:23.544Z,19.10
2022-12-05T03:01:51.014Z,17.70
2022-12-05T03:04:21.580Z,17.13
2022-12-05T03:07:04.991Z,18.02
2022-12-05T03:09:41.568Z,17.15
2022-12-05T03:12:20.400Z,15.30
2022-12-05T03:15:06.100Z,16.10
2022-12-05T03:17:37.368Z,18.35
2022-12-05T03:20:11.642Z,16.42
2022-12-05T03:22:48.160Z,16.23
2022-12-05T03:25:15.749Z,18.20
2022-12-05T03:28:05.062Z,18.52
2022-12-05T03:30:34.182Z,17.77
2022-12-05T03:33:10.034Z,18.67
2022-12-05T03:35:52.597Z,17.38
2022-12-05T03:38:25.413Z,19.08
2022-12-05T03:41:23.770Z,15.85
2022-12-05T03:44:01.091Z,15.98
2022-12-05T03:46:34.917Z,16.77
2022-12-05T03:49:01.841Z,18.07
2022-12-05T03:51:35.020Z,17.95
2022-12-05T03:54:11.668Z,16.48
2022-12-05T03:56:48.895Z,17.88
2022-12-05T03:59:37.205Z,15.90
2022-12-05T04:02:30.637Z,16.08
2022-12-05T04:05:46.663Z,15.90
2022-12-05T04:08:25.595Z,15.45
2022-12-05T04:10:56.863Z,16.77
2022-12-05T04:13:30.751Z,16.38
2022-12-05T04:16:54.664Z,14.30
2022-12-05T04:20:01.763Z,15.85
2022-12-05T04:22:28.980Z,14.50
2022-12-05T04:25:17.286Z,15.30
2022-12-05T04:27:56.100Z,15.80
2022-12-05T04:30:26.097Z,15.05
2022-12-05T04:33:31.607Z,15.02
2022-12-05T04:36:13.725Z,15.90
2022-12-05T04:38:57.836Z,16.73
2022-12-05T04:41:29.380Z,16.75
2022-12-05T04:44:01.687Z,15.27
2022-12-05T04:46:28.533Z,11.80
2022-12-05T04:48:59.378Z,22.20
2022-12-05T04:51:29.071Z,22.92
2022-12-05T04:54:04.682Z,26.45
2022-12-05T04:56:34.989Z,24.30
2022-12-05T04:59:01.979Z,22.13
2022-12-05T05:01:35.255Z,21.90
2022-12-05T05:04:13.922Z,18.85
2022-12-05T05:06:41.574Z,17.30
2022-12-05T05:09:10.112Z,15.02
2022-12-05T05:11:37.524Z,16.33
2022-12-05T05:14:04.704Z,14.43
2022-12-05T05:16:33.388Z,14.35
2022-12-05T05:19:00.379Z,14.02
2022-12-05T05:21:31.572Z,15.00
2022-12-05T05:23:58.748Z,15.70
2022-12-05T05:26:27.153Z,16.27
2022-12-05T05:28:54.739Z,14.77
2022-12-05T05:31:21.766Z,16.00
2022-12-05T05:33:49.787Z,15.55
2022-12-05T05:36:16.632Z,18.80
2022-12-05T05:38:45.562Z,22.30
2022-12-05T05:41:17.580Z,21.17
2022-12-05T05:43:45.940Z,24.58
2022-12-05T05:46:14.062Z,22.40
2022-12-05T05:48:41.124Z,19.85
2022-12-05T05:51:11.109Z,22.65
2022-12-05T05:53:38.605Z,21.65
2022-12-05T05:56:07.954Z,26.00
2022-12-05T05:58:35.227Z,21.08
2022-12-05T06:01:11.741Z,22.63
2022-12-05T06:03:39.365Z,22.42
2022-12-05T06:06:08.985Z,19.20
2022-12-05T06:08:38.459Z,19.40
2022-12-05T06:11:17.762Z,14.88
2022-12-05T06:13:48.336Z,15.85
2022-12-05T06:16:18.057Z,14.82
2022-12-05T06:18:45.292Z,14.18
2022-12-05T06:21:16.196Z,14.02
2022-12-05T06:23:43.780Z,14.18
2022-12-05T06:26:12.268Z,15.10
2022-12-05T06:28:39.528Z,13.05
2022-12-05T06:31:28.379Z,14.48
2022-12-05T06:33:55.219Z,11.75
2022-12-05T06:36:22.388Z,13.95
2022-12-05T06:38:49.398Z,14.90
2022-12-05T06:41:19.243Z,14.27
2022-12-05T06:43:46.358Z,15.05
2022-12-05T06:46:14.387Z,13.98
2022-12-05T06:48:41.216Z,13.73
2022-12-05T06:51:11.558Z,16.23
2022-12-05T06:53:38.878Z,16.88
2022-12-05T06:56:08.191Z,17.10
2022-12-05T06:58:35.115Z,16.35
2022-12-05T07:01:20.674Z,19.85
2022-12-05T07:03:50.318Z,18.58
2022-12-05T07:06:17.392Z,18.98
2022-12-05T07:08:44.939Z,19.88
2022-12-05T07:11:12.161Z,18.67
2022-12-05T07:13:38.989Z,18.83
2022-12-05T07:16:07.282Z,22.88
2022-12-05T07:18:35.018Z,16.83
2022-12-05T07:21:12.232Z,18.75
2022-12-05T07:23:40.910Z,18.10
2022-12-05T07:26:09.975Z,17.13
2022-12-05T07:28:36.910Z,16.10
2022-12-05T07:31:06.010Z,19.08
2022-12-05T07:33:33.040Z,21.35
2022-12-05T07:36:01.597Z,17.48
2022-12-05T07:38:28.884Z,19.27
2022-12-05T07:40:55.703Z,19.70
2022-12-05T07:43:22.756Z,20.10
2022-12-05T07:45:49.931Z,19.00
2022-12-05T07:48:18.823Z,16.10
2022-12-05T07:50:46.111Z,17.35
2022-12-05T07:53:13.163Z,18.25
2022-12-05T07:55:39.976Z,20.35
2022-12-05T07:58:06.716Z,15.77
2022-12-05T08:00:33.584Z,18.80
2022-12-05T08:03:03.192Z,17.50
2022-12-05T08:05:30.342Z,18.67
2022-12-05T08:07:57.277Z,17.17
2022-12-05T08:10:24.126Z,17.38
2022-12-05T08:12:50.909Z,17.70
2022-12-05T08:15:17.754Z,17.15
2022-12-05T08:17:44.595Z,17.23
2022-12-05T08:20:11.982Z,17.77
2022-12-05T08:22:38.721Z,20.13
2022-12-05T08:25:05.797Z,18.65
2022-12-05T08:27:32.721Z,21.33
2022-12-05T08:29:59.832Z,19.88
2022-12-05T08:32:27.412Z,18.25
2022-12-05T08:34:54.237Z,17.90
2022-12-05T08:37:21.060Z,17.35
2022-12-05T08:39:48.653Z,17.63
2022-12-05T08:42:15.586Z,18.23
2022-12-05T08:44:42.318Z,16.50
2022-12-05T08:47:09.091Z,16.85
2022-12-05T08:49:35.889Z,15.98
2022-12-05T08:52:02.699Z,14.10
2022-12-05T08:54:29.432Z,16.50
2022-12-05T08:56:56.418Z,15.68
2022-12-05T08:59:23.215Z,15.07
2022-12-05T09:01:50.754Z,15.25
2022-12-05T09:04:17.569Z,15.25
2022-12-05T09:06:44.309Z,13.77
2022-12-05T09:09:11.710Z,15.48
2022-12-05T09:11:46.278Z,16.95
2022-12-05T09:16:40.882Z,15.88
2022-12-05T09:19:14.284Z,15.40
2022-12-05T09:21:42.580Z,16.88
2022-12-05T09:24:11.636Z,15.82
2022-12-05T09:26:39.077Z,19.83
2022-12-05T09:29:08.777Z,18.80
2022-12-05T09:31:37.363Z,20.35
2022-12-05T09:34:04.532Z,23.27
2022-12-05T09:36:32.087Z,19.42
2022-12-05T09:39:04.583Z,19.13
2022-12-05T09:42:08.162Z,18.98
2022-12-05T09:45:05.128Z,20.58
2022-12-05T09:47:48.920Z,21.67
2022-12-05T09:50:28.432Z,21.05
2022-12-05T09:52:58.066Z,21.13
2022-12-05T09:55:27.243Z,20.35
2022-12-05T09:58:00.379Z,22.30
2022-12-05T10:00:29.632Z,20.40
2022-12-05T10:03:23.934Z,19.85
2022-12-05T10:05:58.906Z,20.27
2022-12-05T10:08:33.496Z,19.55
2022-12-05T10:11:18.746Z,18.95
2022-12-05T10:14:00.044Z,20.20
2022-12-05T10:16:26.917Z,22.20
2022-12-05T10:19:00.809Z,19.77
2022-12-05T10:21:32.612Z,21.17
2022-12-05T10:24:03.046Z,21.65
2022-12-05T10:26:36.627Z,17.88
2022-12-05T10:29:20.646Z,17.88
2022-12-05T10:31:48.728Z,18.65
2022-12-05T10:34:37.228Z,21.42
2022-12-05T10:37:19.962Z,21.63
2022-12-05T10:39:47.888Z,20.13
2022-12-05T10:42:28.416Z,19.08
2022-12-05T10:45:02.970Z,21.70
2022-12-05T10:47:30.780Z,19.55
2022-12-05T10:50:04.130Z,19.67
2022-12-05T10:52:31.962Z,18.40
2022-12-05T10:55:04.117Z,19.92
2022-12-05T10:57:31.235Z,17.95
2022-12-05T11:00:08.893Z,18.75
2022-12-05T11:02:38.108Z,19.88
2022-12-05T11:05:05.542Z,20.48
2022-12-05T11:07:44.497Z,17.83
2022-12-05T11:10:26.892Z,21.80
2022-12-05T11:12:57.853Z,19.83
2022-12-05T11:15:27.950Z,20.48
2022-12-05T11:17:56.787Z,21.13
2022-12-05T11:20:23.504Z,22.95
2022-12-05T11:22:56.283Z,22.33
2022-12-05T11:25:28.314Z,21.52
2022-12-05T11:28:01.567Z,25.27
2022-12-05T11:30:29.556Z,23.15
2022-12-05T11:33:23.064Z,23.10
2022-12-05T11:35:52.862Z,21.15
2022-12-05T11:38:22.530Z,23.27
2022-12-05T11:40:57.579Z,22.00
2022-12-05T11:43:24.532Z,21.10
2022-12-05T11:45:53.959Z,19.90
2022-12-05T11:49:02.363Z,20.27
2022-12-05T11:51:52.079Z,21.77
2022-12-05T11:55:05.383Z,22.30
2022-12-05T11:57:40.411Z,21.55
2022-12-05T12:00:44.871Z,21.58
2022-12-05T12:03:34.127Z,21.38
2022-12-05T12:06:27.456Z,21.55
2022-12-05T12:09:15.467Z,20.13
2022-12-05T12:12:08.736Z,17.25
2022-12-05T12:14:48.622Z,23.17
2022-12-05T12:17:46.030Z,20.33
2022-12-05T12:20:43.408Z,22.55
2022-12-05T12:23:27.393Z,22.58
2022-12-05T12:26:22.892Z,21.67
2022-12-05T12:29:14.704Z,20.58
2022-12-05T12:32:18.230Z,18.80
2022-12-05T12:35:16.267Z,20.90
2022-12-05T12:38:01.473Z,19.13
2022-12-05T12:40:47.625Z,19.45
2022-12-05T12:43:52.534Z,19.58
2022-12-05T12:46:44.333Z,21.30
2022-12-05T12:49:45.033Z,20.98
2022-12-05T12:52:18.978Z,21.90
2022-12-05T12:55:27.823Z,22.00
2022-12-05T12:58:12.044Z,20.52
2022-12-05T13:01:00.634Z,19.67
2022-12-05T13:03:29.909Z,24.80
2022-12-05T13:06:07.081Z,19.58
2022-12-05T13:08:43.313Z,23.60
2022-12-05T13:11:12.599Z,22.95
2022-12-05T13:13:50.394Z,24.33
2022-12-05T13:16:26.820Z,20.50
2022-12-05T13:18:56.038Z,22.77
2022-12-05T13:21:23.711Z,21.42
2022-12-05T13:23:55.786Z,22.50
2022-12-05T13:26:23.919Z,23.58
2022-12-05T13:28:55.464Z,23.55
2022-12-05T13:31:44.854Z,23.05
2022-12-05T13:34:27.399Z,22.80
2022-12-05T13:37:13.275Z,22.17
2022-12-05T13:39:58.757Z,21.50
2022-12-05T13:42:30.262Z,21.17
2022-12-05T13:45:20.032Z,21.70
2022-12-05T13:48:01.762Z,20.58
2022-12-05T13:50:51.525Z,18.58
2022-12-05T13:53:31.565Z,18.42
2022-12-05T13:56:12.177Z,15.48
2022-12-05T13:58:57.781Z,15.05
2022-12-05T14:01:27.812Z,16.92
2022-12-05T14:03:58.389Z,15.82
2022-12-05T14:06:40.146Z,19.10
2022-12-05T14:09:19.478Z,16.90
2022-12-05T14:12:11.257Z,17.42
2022-12-05T14:14:59.360Z,16.52
2022-12-05T14:17:44.852Z,19.08
2022-12-05T14:20:36.569Z,19.02
2022-12-05T14:23:09.223Z,19.25
2022-12-05T14:26:11.384Z,16.48
2022-12-05T14:29:08.015Z,17.60
2022-12-05T14:31:53.632Z,17.55
2022-12-05T14:34:22.129Z,17.48
2022-12-05T14:37:08.895Z,19.45
2022-12-05T14:39:52.132Z,17.90
2022-12-05T14:42:21.950Z,15.88
2022-12-05T14:44:55.012Z,17.95
2022-12-05T14:47:30.290Z,17.13
2022-12-05T14:50:20.842Z,18.15
2022-12-05T14:53:26.236Z,15.15
2022-12-05T14:56:16.108Z,17.02
2022-12-05T14:58:58.032Z,18.38
2022-12-05T15:01:43.782Z,16.20
2022-12-05T15:04:32.414Z,16.65
2022-12-05T15:07:04.197Z,17.80
2022-12-05T15:09:49.625Z,17.23
2022-12-05T15:12:19.777Z,18.88
2022-12-05T15:15:07.407Z,18.38
2022-12-05T15:17:45.855Z,16.98
2022-12-05T15:20:49.154Z,17.85
2022-12-05T15:23:37.840Z,15.43
2022-12-05T15:26:48.437Z,15.63
2022-12-05T15:29:20.828Z,17.08
2022-12-05T15:31:50.451Z,15.82
2022-12-05T15:34:31.417Z,15.40
2022-12-05T15:37:23.421Z,15.20
2022-12-05T15:39:56.415Z,13.80
2022-12-05T15:42:32.323Z,10.80
2022-12-05T15:45:17.290Z,12.57
2022-12-05T15:47:46.928Z,13.75
2022-12-05T15:50:38.647Z,12.27
2022-12-05T15:53:31.634Z,13.35
2022-12-05T15:56:15.631Z,11.90
2022-12-05T15:59:18.870Z,11.32
2022-12-05T16:01:51.765Z,8.88
2022-12-05T16:04:41.181Z,9.10
2022-12-05T16:07:11.429Z,8.90
2022-12-05T16:09:42.361Z,8.55
2022-12-05T16:12:35.288Z,9.85
2022-12-05T16:15:10.949Z,9.88
2022-12-05T16:17:46.120Z,10.65
2022-12-05T16:20:31.474Z,12.68
2022-12-05T16:23:22.861Z,12.45
2022-12-05T16:25:50.082Z,10.73
2022-12-05T16:28:19.661Z,11.23
2022-12-05T16:31:14.611Z,9.57
2022-12-05T16:33:43.709Z,10.98
2022-12-05T16:36:12.500Z,11.55
2022-12-05T16:38:44.859Z,12.73
2022-12-05T16:41:13.121Z,12.68
2022-12-05T16:43:39.837Z,12.32
2022-12-05T16:46:15.401Z,10.23
2022-12-05T16:49:08.362Z,12.50
2022-12-05T16:51:42.246Z,11.73
2022-12-05T16:54:09.302Z,14.20
2022-12-05T16:56:36.417Z,11.60
2022-12-05T16:59:05.677Z,11.43
2022-12-05T17:01:38.454Z,11.85
2022-12-05T17:04:06.009Z,11.18
2022-12-05T17:06:32.827Z,9.18
2022-12-05T17:09:00.157Z,11.35
2022-12-05T17:11:30.803Z,10.57
2022-12-05T17:13:58.637Z,11.57
2022-12-05T17:16:26.720Z,13.15
2022-12-05T17:18:53.796Z,12.30
2022-12-05T17:21:23.925Z,12.45
2022-12-05T17:23:51.492Z,12.90
2022-12-05T17:26:21.087Z,14.55
2022-12-05T17:28:48.966Z,13.82
2022-12-05T17:31:19.962Z,12.77
2022-12-05T17:33:48.633Z,12.48
2022-12-05T17:36:16.273Z,12.05
2022-12-05T17:38:44.133Z,12.23
2022-12-05T17:41:19.148Z,14.15
2022-12-05T17:43:46.229Z,13.73
2022-12-05T17:46:18.956Z,15.52
2022-12-05T17:48:47.078Z,14.40
2022-12-05T17:51:14.750Z,14.20
2022-12-05T17:53:42.814Z,14.75
2022-12-05T17:56:09.611Z,14.45
2022-12-05T17:58:36.458Z,14.45
2022-12-05T18:01:03.755Z,15.90
2022-12-05T18:03:30.735Z,16.40
2022-12-05T18:05:57.783Z,16.95
2022-12-05T18:08:25.097Z,17.50
2022-12-05T18:10:52.255Z,15.95
2022-12-05T18:13:19.136Z,15.60
2022-12-05T18:15:48.349Z,14.73
2022-12-05T18:18:17.695Z,16.73
2022-12-05T18:20:44.868Z,17.27
2022-12-05T18:23:11.791Z,16.45
2022-12-05T18:25:39.506Z,16.58
2022-12-05T18:28:06.591Z,17.70
2022-12-05T18:30:33.648Z,15.45
2022-12-05T18:33:00.357Z,13.88
2022-12-05T18:35:42.510Z,16.95
2022-12-05T18:38:12.743Z,16.67
2022-12-05T18:40:39.583Z,15.02
2022-12-05T18:43:06.622Z,16.92
2022-12-05T18:45:33.475Z,15.77
2022-12-05T18:48:23.011Z,12.65
2022-12-05T18:50:47.043Z,13.45
2022-12-05T18:53:14.005Z,14.50
2022-12-05T18:58:28.158Z,10.73
2022-12-05T19:00:54.957Z,9.55
2022-12-05T19:03:21.783Z,10.68
2022-12-05T19:05:48.557Z,9.30
2022-12-05T19:08:15.779Z,8.90
2022-12-05T19:10:43.872Z,10.25
2022-12-05T19:13:10.931Z,10.45
2022-12-05T19:15:37.693Z,8.73
2022-12-05T19:18:04.507Z,8.50
2022-12-05T19:20:31.246Z,9.23
2022-12-05T19:23:01.104Z,8.00
2022-12-05T19:25:30.184Z,9.00
2022-12-05T19:27:56.919Z,8.45
2022-12-05T19:30:23.759Z,9.45
2022-12-05T19:32:50.511Z,10.07
2022-12-05T19:35:17.381Z,9.85
2022-12-05T19:37:44.124Z,8.98
2022-12-05T19:40:11.425Z,9.30
2022-12-05T19:42:38.280Z,8.20
2022-12-05T19:45:08.908Z,8.85
2022-12-05T19:47:37.327Z,7.72
2022-12-05T19:50:04.524Z,6.63
2022-12-05T19:52:31.717Z,7.05
2022-12-05T19:54:58.650Z,6.78
2022-12-05T19:57:29.799Z,6.55
2022-12-05T19:59:58.093Z,5.95
2022-12-05T20:02:25.469Z,6.75
2022-12-05T20:04:52.368Z,7.10
2022-12-05T20:07:19.263Z,9.05
2022-12-05T20:09:46.096Z,10.32
2022-12-05T20:12:12.939Z,10.55
2022-12-05T20:14:39.703Z,11.82
2022-12-05T20:17:06.776Z,10.93
2022-12-05T20:19:33.525Z,11.63
2022-12-05T20:22:00.287Z,11.35
2022-12-05T20:24:27.098Z,10.73
2022-12-05T20:26:53.942Z,11.73
2022-12-05T20:29:20.926Z,10.38
2022-12-05T20:31:52.100Z,12.07
2022-12-05T20:34:18.851Z,11.70
2022-12-05T20:36:45.660Z,12.07
2022-12-05T20:39:17.096Z,12.27
2022-12-05T20:41:44.345Z,13.52
2022-12-05T20:44:13.931Z,11.02
2022-12-05T20:46:41.483Z,10.48
2022-12-05T20:49:08.759Z,9.32
2022-12-05T20:51:35.656Z,10.52
2022-12-05T20:54:03.828Z,10.98
2022-12-05T20:56:32.142Z,10.40
2022-12-05T20:59:01.607Z,10.18
2022-12-05T21:01:30.707Z,10.23
2022-12-05T21:03:57.710Z,9.90
2022-12-05T21:06:27.388Z,10.32
2022-12-05T21:08:54.849Z,11.13
2022-12-05T21:11:22.779Z,11.05
2022-12-05T21:13:49.743Z,9.20
2022-12-05T21:16:19.565Z,9.32
2022-12-05T21:18:47.077Z,9.98
2022-12-05T21:21:22.829Z,10.55
2022-12-05T21:23:56.042Z,10.55
2022-12-05T21:26:24.462Z,10.90
2022-12-05T21:28:51.558Z,10.40
2022-12-05T21:31:26.226Z,9.88
2022-12-05T21:36:21.779Z,9.50
2022-12-05T21:38:55.454Z,9.60
2022-12-05T21:41:23.296Z,9.18
2022-12-05T21:43:54.640Z,11.13
2022-12-05T21:46:23.136Z,10.65
2022-12-05T21:48:50.208Z,10.40
2022-12-05T21:51:17.199Z,11.52
2022-12-05T21:53:44.007Z,9.30
2022-12-05T21:56:15.650Z,11.90
2022-12-05T21:58:43.857Z,9.70
2022-12-05T22:01:18.699Z,11.15
2022-12-05T22:06:15.191Z,11.32
2022-12-05T22:08:42.572Z,11.23
2022-12-05T22:11:18.708Z,10.70
2022-12-05T22:13:48.840Z,11.40
2022-12-05T22:16:19.509Z,11.50
2022-12-05T22:18:46.980Z,11.07
2022-12-05T22:21:16.760Z,11.57
2022-12-05T22:23:45.327Z,10.95
2022-12-05T22:26:22.954Z,12.05
2022-12-05T22:28:54.378Z,12.20
2022-12-05T22:31:22.411Z,11.40
2022-12-05T22:33:49.666Z,11.15
2022-12-05T22:36:18.350Z,11.60
2022-12-05T22:38:47.264Z,9.23
2022-12-05T22:41:20.308Z,12.73
2022-12-05T22:43:48.923Z,10.40
2022-12-05T22:46:20.219Z,10.20
2022-12-05T22:48:49.011Z,10.63
2022-12-05T22:51:17.558Z,14.20
2022-12-05T22:53:44.753Z,15.45
2022-12-05T22:56:14.325Z,12.68
2022-12-05T22:58:41.956Z,12.88
2022-12-05T23:01:14.219Z,12.68
2022-12-05T23:03:42.039Z,13.48
2022-12-05T23:06:12.042Z,14.45
2022-12-05T23:08:40.643Z,14.88
2022-12-05T23:11:08.055Z,13.07
2022-12-05T23:13:35.985Z,10.98
2022-12-05T23:16:12.083Z,14.45
2022-12-05T23:18:48.333Z,12.80
2022-12-05T23:21:29.603Z,12.68
2022-12-05T23:23:59.756Z,14.05
2022-12-05T23:26:30.372Z,14.90
2022-12-05T23:28:57.159Z,14.98
2022-12-05T23:31:24.445Z,14.10
2022-12-05T23:33:55.229Z,14.50
2022-12-05T23:36:25.406Z,14.48
2022-12-05T23:38:52.380Z,16.63
2022-12-05T23:41:22.714Z,16.85
2022-12-05T23:43:51.048Z,14.80
2022-12-05T23:46:24.318Z,14.68
2022-12-05T23:48:51.801Z,15.15
2022-12-05T23:51:21.371Z,15.07
2022-12-05T23:53:52.076Z,14.77
2022-12-05T23:56:21.394Z,14.05
2022-12-05T23:58:48.130Z,12.80
